Time,TemperatureF,DewpointF,PressureIn,WindDirection,WindDirectionDegrees,WindSpeedMPH,WindSpeedGustMPH,Humidity,HourlyPrecipIn,Conditions,Clouds,dailyrainin,SoftwareType,DateUTC
2013-03-06 00:02:00,40.1,29.1,29.77,SSW,211,16.0,35.0,64,0.00,,---,0.00,VWS V14.00,2013-03-06 08:02:00,
2013-03-06 00:12:00,39.3,28.4,29.78,South,187,30.0,39.0,64,0.00,,---,0.00,VWS V14.00,2013-03-06 08:12:00,
2013-03-06 00:17:00,38.2,26.5,29.77,South,170,32.0,46.0,62,0.00,,---,0.00,VWS V14.00,2013-03-06 08:17:00,
2013-03-06 00:27:00,37.7,24.5,29.77,SW,223,28.0,40.0,58,0.00,,---,0.00,VWS V14.00,2013-03-06 08:27:00,
2013-03-06 00:32:00,38.2,24.1,29.77,SSW,192,27.0,44.0,56,0.00,,---,0.00,VWS V14.00,2013-03-06 08:32:00,
2013-03-06 00:37:00,37.7,24.5,29.75,SSW,209,59.0,59.0,58,0.00,,---,0.00,VWS V14.00,2013-03-06 08:37:00,
2013-03-06 00:42:00,37.2,24.4,29.75,SSW,195,27.0,59.0,60,0.00,,---,0.00,VWS V14.00,2013-03-06 08:42:00,
2013-03-06 00:47:00,37.0,24.2,29.74,SW,215,33.0,49.0,60,0.00,,---,0.00,VWS V14.00,2013-03-06 08:47:00,
2013-03-06 00:57:00,36.9,24.1,29.74,SW,214,46.0,59.0,60,0.00,,---,0.00,VWS V14.00,2013-03-06 08:57:00,
2013-03-06 01:02:00,36.8,24.0,29.74,SW,219,40.0,52.0,60,0.00,,---,0.00,VWS V14.00,2013-03-06 09:02:00,
2013-03-06 01:07:00,36.5,24.1,29.74,SW,217,27.0,48.0,60,0.00,,---,0.00,VWS V14.00,2013-03-06 09:07:00,
2013-03-06 01:12:00,36.6,23.8,29.74,SW,217,29.0,52.0,60,0.00,,---,0.00,VWS V14.00,2013-03-06 09:12:00,
2013-03-06 01:17:00,36.9,23.3,29.74,SW,216,35.0,48.0,58,0.00,,---,0.00,VWS V14.00,2013-03-06 09:17:00,
2013-03-06 01:22:00,37.2,23.2,29.75,SSW,211,42.0,49.0,56,0.00,,---,0.00,VWS V14.00,2013-03-06 09:22:00,
2013-03-06 01:27:00,37.3,22.8,29.75,SW,219,31.0,45.0,56,0.00,,---,0.00,VWS V14.00,2013-03-06 09:27:00,
2013-03-06 01:32:00,37.7,22.8,29.76,SSW,209,34.0,50.0,54,0.00,,---,0.00,VWS V14.00,2013-03-06 09:32:00,
2013-03-06 01:37:00,37.1,23.5,29.76,SW,214,38.0,49.0,58,0.00,,---,0.00,VWS V14.00,2013-03-06 09:37:00,
2013-03-06 01:42:00,36.5,24.1,29.77,SSW,208,27.0,50.0,60,0.00,,---,0.00,VWS V14.00,2013-03-06 09:42:00,
2013-03-06 01:47:00,36.0,24.8,29.76,SW,223,37.0,46.0,64,0.00,,---,0.00,VWS V14.00,2013-03-06 09:47:00,
2013-03-06 01:52:00,35.4,26.1,29.77,SW,223,29.0,47.0,68,0.00,,---,0.00,VWS V14.00,2013-03-06 09:52:00,
2013-03-06 01:57:00,35.2,26.2,29.78,SW,220,18.0,42.0,70,0.00,,---,0.00,VWS V14.00,2013-03-06 09:57:00,
2013-03-06 02:02:00,35.0,26.4,29.79,SW,219,26.0,35.0,70,0.00,,---,0.00,VWS V14.00,2013-03-06 10:02:00,
2013-03-06 02:07:00,35.0,26.4,29.78,SSW,207,21.0,38.0,70,0.00,,---,0.00,VWS V14.00,2013-03-06 10:07:00,
2013-03-06 02:12:00,34.4,26.8,29.77,SW,218,33.0,45.0,74,0.00,,---,0.00,VWS V14.00,2013-03-06 10:12:00,
2013-03-06 02:17:00,34.4,26.8,29.77,SSW,205,22.0,43.0,74,0.00,,---,0.00,VWS V14.00,2013-03-06 10:17:00,
2013-03-06 02:22:00,34.2,27.0,29.77,SSW,205,25.0,34.0,74,0.00,,---,0.00,VWS V14.00,2013-03-06 10:22:00,
2013-03-06 02:27:00,33.9,27.0,29.77,SSW,196,23.0,35.0,76,0.00,,---,0.00,VWS V14.00,2013-03-06 10:27:00,
2013-03-06 02:32:00,33.9,27.3,29.78,SW,223,21.0,34.0,76,0.00,,---,0.00,VWS V14.00,2013-03-06 10:32:00,
2013-03-06 02:37:00,34.2,27.3,29.77,SSW,198,21.0,36.0,76,0.00,,---,0.00,VWS V14.00,2013-03-06 10:37:00,
2013-03-06 02:47:00,34.4,26.8,29.77,SSW,213,26.0,34.0,74,0.00,,---,0.00,VWS V14.00,2013-03-06 10:47:00,
2013-03-06 02:52:00,34.4,26.5,29.78,SSW,200,22.0,33.0,72,0.00,,---,0.00,VWS V14.00,2013-03-06 10:52:00,
2013-03-06 02:57:00,34.4,26.8,29.78,SSW,195,21.0,29.0,74,0.00,,---,0.00,VWS V14.00,2013-03-06 10:57:00,
2013-03-06 03:02:00,34.4,26.5,29.77,SSW,205,16.0,37.0,72,0.00,,---,0.00,VWS V14.00,2013-03-06 11:02:00,
2013-03-06 03:07:00,34.4,26.5,29.77,South,186,19.0,30.0,72,0.00,,---,0.00,VWS V14.00,2013-03-06 11:07:00,
2013-03-06 03:12:00,34.5,26.6,29.78,SSW,200,25.0,31.0,72,0.00,,---,0.00,VWS V14.00,2013-03-06 11:12:00,
2013-03-06 03:17:00,34.7,26.4,29.78,South,187,24.0,28.0,72,0.00,,---,0.00,VWS V14.00,2013-03-06 11:17:00,
2013-03-06 03:22:00,35.1,26.5,29.78,SSW,200,28.0,40.0,70,0.00,,---,0.00,VWS V14.00,2013-03-06 11:22:00,
2013-03-06 03:27:00,35.7,26.0,29.79,SSW,211,25.0,32.0,68,0.00,,---,0.00,VWS V14.00,2013-03-06 11:27:00,
2013-03-06 03:32:00,35.9,25.5,29.79,SSW,192,18.0,36.0,66,0.00,,---,0.00,VWS V14.00,2013-03-06 11:32:00,
2013-03-06 03:37:00,35.7,25.6,29.78,South,190,29.0,29.0,66,0.00,,---,0.00,VWS V14.00,2013-03-06 11:37:00,
2013-03-06 03:42:00,35.6,25.9,29.78,SSW,198,31.0,33.0,68,0.00,,---,0.00,VWS V14.00,2013-03-06 11:42:00,
2013-03-06 03:47:00,35.6,25.6,29.78,SSW,193,24.0,34.0,66,0.00,,---,0.00,VWS V14.00,2013-03-06 11:47:00,
2013-03-06 03:52:00,35.4,25.7,29.78,South,169,19.0,37.0,68,0.00,,---,0.00,VWS V14.00,2013-03-06 11:52:00,
2013-03-06 03:57:00,35.5,25.5,29.78,SSW,192,32.0,35.0,66,0.00,,---,0.00,VWS V14.00,2013-03-06 11:57:00,
2013-03-06 04:02:00,35.7,24.9,29.78,SSW,192,22.0,38.0,64,0.00,,---,0.00,VWS V14.00,2013-03-06 12:02:00,
2013-03-06 04:07:00,35.7,24.9,29.78,SSW,202,18.0,34.0,64,0.00,,---,0.00,VWS V14.00,2013-03-06 12:07:00,
2013-03-06 04:12:00,35.6,24.5,29.79,SSW,196,24.0,35.0,64,0.00,,---,0.00,VWS V14.00,2013-03-06 12:12:00,
2013-03-06 04:17:00,35.7,23.8,29.79,SSW,213,24.0,39.0,62,0.00,,---,0.00,VWS V14.00,2013-03-06 12:17:00,
2013-03-06 04:22:00,35.8,23.5,29.78,SSW,193,15.0,30.0,60,0.00,,---,0.00,VWS V14.00,2013-03-06 12:22:00,
2013-03-06 04:27:00,35.7,23.0,29.78,SSW,207,19.0,33.0,60,0.00,,---,0.00,VWS V14.00,2013-03-06 12:27:00,
2013-03-06 04:32:00,35.9,22.8,29.78,South,185,26.0,33.0,58,0.00,,---,0.00,VWS V14.00,2013-03-06 12:32:00,
2013-03-06 04:37:00,36.0,23.3,29.78,SSW,195,22.0,36.0,60,0.00,,---,0.00,VWS V14.00,2013-03-06 12:37:00,
2013-03-06 04:42:00,35.2,24.8,29.78,SSW,195,23.0,36.0,66,0.00,,---,0.00,VWS V14.00,2013-03-06 12:42:00,
2013-03-06 04:47:00,35.0,24.6,29.78,South,190,25.0,33.0,66,0.00,,---,0.00,VWS V14.00,2013-03-06 12:47:00,
2013-03-06 04:52:00,35.1,24.4,29.78,SSE,167,26.0,35.0,64,0.00,,---,0.00,VWS V14.00,2013-03-06 12:52:00,
2013-03-06 04:57:00,34.9,25.6,29.78,SSW,210,25.0,35.0,68,0.00,,---,0.00,VWS V14.00,2013-03-06 12:57:00,
2013-03-06 05:02:00,34.4,25.5,29.78,SSW,199,20.0,32.0,70,0.00,,---,0.00,VWS V14.00,2013-03-06 13:02:00,
2013-03-06 05:07:00,34.4,25.5,29.78,SSW,201,11.0,28.0,70,0.00,,---,0.00,VWS V14.00,2013-03-06 13:07:00,
2013-03-06 05:12:00,34.8,25.1,29.78,SSW,194,12.0,30.0,68,0.00,,---,0.00,VWS V14.00,2013-03-06 13:12:00,
2013-03-06 05:17:00,35.4,24.6,29.79,SSW,205,18.0,26.0,64,0.00,,---,0.00,VWS V14.00,2013-03-06 13:17:00,
2013-03-06 05:22:00,36.3,24.0,29.79,SSW,211,21.0,33.0,60,0.00,,---,0.00,VWS V14.00,2013-03-06 13:22:00,
2013-03-06 05:27:00,36.4,24.4,29.79,SW,225,14.0,23.0,62,0.00,,---,0.00,VWS V14.00,2013-03-06 13:27:00,
2013-03-06 05:32:00,36.4,24.4,29.79,SW,215,9.0,23.0,62,0.00,,---,0.00,VWS V14.00,2013-03-06 13:32:00,
2013-03-06 05:37:00,36.4,24.4,29.79,SSW,209,8.0,23.0,62,0.00,,---,0.00,VWS V14.00,2013-03-06 13:37:00,
2013-03-06 05:42:00,36.2,24.6,29.79,SSW,213,10.0,16.0,62,0.00,,---,0.00,VWS V14.00,2013-03-06 13:42:00,
2013-03-06 05:47:00,35.6,25.6,29.79,SW,221,15.0,29.0,66,0.00,,---,0.00,VWS V14.00,2013-03-06 13:47:00,
2013-03-06 05:57:00,33.4,27.1,29.79,SW,216,13.0,26.0,78,0.00,,---,0.00,VWS V14.00,2013-03-06 13:57:00,
2013-03-06 06:02:00,32.9,27.6,29.79,SSW,209,12.0,20.0,80,0.00,,---,0.00,VWS V14.00,2013-03-06 14:02:00,
2013-03-06 06:07:00,32.8,27.8,29.79,SSW,210,12.0,16.0,82,0.00,,---,0.00,VWS V14.00,2013-03-06 14:07:00,
2013-03-06 06:12:00,32.8,28.1,29.79,SSW,195,18.0,21.0,82,0.00,,---,0.00,VWS V14.00,2013-03-06 14:12:00,
2013-03-06 06:17:00,32.7,28.0,29.80,South,187,11.0,21.0,82,0.00,,---,0.00,VWS V14.00,2013-03-06 14:17:00,
2013-03-06 06:22:00,32.4,28.3,29.80,SSW,196,18.0,21.0,84,0.00,,---,0.00,VWS V14.00,2013-03-06 14:22:00,
2013-03-06 06:27:00,32.1,28.2,29.80,SSW,196,12.0,28.0,86,0.00,,---,0.00,VWS V14.00,2013-03-06 14:27:00,
2013-03-06 06:32:00,31.9,28.6,29.80,South,188,12.0,26.0,88,0.00,,---,0.00,VWS V14.00,2013-03-06 14:32:00,
2013-03-06 06:37:00,31.8,28.5,29.80,South,179,12.0,21.0,88,0.00,,---,0.00,VWS V14.00,2013-03-06 14:37:00,
2013-03-06 06:42:00,31.7,28.7,29.80,South,184,8.0,18.0,88,0.00,,---,0.00,VWS V14.00,2013-03-06 14:42:00,
2013-03-06 06:47:00,31.7,28.7,29.80,SSE,168,8.0,12.0,88,0.00,,---,0.00,VWS V14.00,2013-03-06 14:47:00,
2013-03-06 06:52:00,31.7,28.7,29.80,South,172,12.0,20.0,88,0.00,,---,0.00,VWS V14.00,2013-03-06 14:52:00,
2013-03-06 06:57:00,31.7,29.0,29.81,South,179,16.0,20.0,90,0.00,,---,0.00,VWS V14.00,2013-03-06 14:57:00,
2013-03-06 07:02:00,31.7,29.0,29.81,South,191,14.0,23.0,90,0.00,,---,0.00,VWS V14.00,2013-03-06 15:02:00,
2013-03-06 07:12:00,31.7,29.0,29.81,South,179,9.0,18.0,90,0.00,,---,0.00,VWS V14.00,2013-03-06 15:12:00,
2013-03-06 07:17:00,31.8,29.1,29.82,SSE,165,10.0,20.0,90,0.00,,---,0.00,VWS V14.00,2013-03-06 15:17:00,
2013-03-06 07:22:00,32.0,29.5,29.82,South,176,10.0,16.0,90,0.00,,---,0.00,VWS V14.00,2013-03-06 15:22:00,
2013-03-06 07:27:00,32.4,29.9,29.81,SSE,156,14.0,14.0,90,0.00,,---,0.00,VWS V14.00,2013-03-06 15:27:00,
2013-03-06 07:32:00,32.3,29.8,29.81,South,169,8.0,14.0,90,0.00,,---,0.00,VWS V14.00,2013-03-06 15:32:00,
2013-03-06 07:37:00,32.6,30.1,29.81,South,171,9.0,15.0,90,0.00,,---,0.00,VWS V14.00,2013-03-06 15:37:00,
2013-03-06 07:42:00,32.6,30.1,29.82,South,171,6.0,11.0,90,0.00,,---,0.00,VWS V14.00,2013-03-06 15:42:00,
2013-03-06 07:47:00,32.6,30.1,29.82,South,178,12.0,15.0,90,0.00,,---,0.00,VWS V14.00,2013-03-06 15:47:00,
2013-03-06 07:52:00,32.7,30.0,29.83,SSW,210,13.0,25.0,90,0.00,,---,0.00,VWS V14.00,2013-03-06 15:52:00,
2013-03-06 07:57:00,32.8,30.1,29.83,SSW,200,18.0,27.0,90,0.00,,---,0.00,VWS V14.00,2013-03-06 15:57:00,
2013-03-06 08:07:00,32.7,30.0,29.83,South,187,14.0,19.0,90,0.00,,---,0.00,VWS V14.00,2013-03-06 16:07:00,
2013-03-06 08:12:00,33.2,30.5,29.83,South,183,4.0,14.0,90,0.01,,---,0.01,VWS V14.00,2013-03-06 16:12:00,
2013-03-06 08:17:00,33.9,31.1,29.83,South,173,10.0,12.0,90,0.01,,---,0.01,VWS V14.00,2013-03-06 16:17:00,
2013-03-06 08:22:00,33.9,30.9,29.83,South,188,14.0,19.0,88,0.01,,---,0.01,VWS V14.00,2013-03-06 16:22:00,
2013-03-06 08:27:00,34.1,31.1,29.83,South,188,10.0,19.0,88,0.01,,---,0.01,VWS V14.00,2013-03-06 16:27:00,
2013-03-06 08:32:00,34.4,31.1,29.84,South,186,12.0,20.0,88,0.01,,---,0.01,VWS V14.00,2013-03-06 16:32:00,
2013-03-06 08:37:00,35.0,31.1,29.84,SSW,194,20.0,24.0,86,0.01,,---,0.01,VWS V14.00,2013-03-06 16:37:00,
2013-03-06 08:42:00,35.2,30.7,29.85,South,184,18.0,25.0,84,0.01,,---,0.01,VWS V14.00,2013-03-06 16:42:00,
2013-03-06 08:47:00,34.9,30.4,29.85,South,184,16.0,23.0,84,0.01,,---,0.01,VWS V14.00,2013-03-06 16:47:00,
2013-03-06 08:52:00,34.3,29.8,29.85,South,191,15.0,26.0,84,0.01,,---,0.01,VWS V14.00,2013-03-06 16:52:00,
2013-03-06 08:57:00,33.9,29.7,29.86,SSW,205,22.0,25.0,84,0.01,,---,0.01,VWS V14.00,2013-03-06 16:57:00,
2013-03-06 09:02:00,33.9,30.0,29.86,SW,215,19.0,22.0,86,0.01,,---,0.01,VWS V14.00,2013-03-06 17:02:00,
2013-03-06 09:07:00,34.4,30.8,29.86,SW,223,8.0,19.0,86,0.01,,---,0.01,VWS V14.00,2013-03-06 17:07:00,
2013-03-06 09:12:00,34.7,31.1,29.87,SW,226,15.0,18.0,86,0.01,,---,0.01,VWS V14.00,2013-03-06 17:12:00,
2013-03-06 09:22:00,33.0,29.1,29.87,WSW,254,7.0,10.0,86,0.00,,---,0.01,VWS V14.00,2013-03-06 17:22:00,
2013-03-06 09:27:00,32.3,28.7,29.87,West,260,9.0,10.0,86,0.00,,---,0.01,VWS V14.00,2013-03-06 17:27:00,
2013-03-06 09:32:00,31.4,27.9,29.88,West,272,8.0,12.0,86,0.00,,---,0.01,VWS V14.00,2013-03-06 17:32:00,
2013-03-06 09:37:00,31.0,27.7,29.88,WNW,288,9.0,14.0,88,0.00,,---,0.01,VWS V14.00,2013-03-06 17:37:00,
2013-03-06 09:42:00,30.7,27.7,29.88,WNW,291,8.0,13.0,88,0.00,,---,0.01,VWS V14.00,2013-03-06 17:42:00,
2013-03-06 09:47:00,30.4,27.4,29.88,WNW,292,9.0,14.0,88,0.00,,---,0.01,VWS V14.00,2013-03-06 17:47:00,
2013-03-06 09:52:00,30.1,27.1,29.89,WNW,292,0.0,10.0,88,0.00,,---,0.01,VWS V14.00,2013-03-06 17:52:00,
2013-03-06 09:57:00,30.2,27.5,29.89,WNW,292,4.0,6.0,90,0.00,,---,0.01,VWS V14.00,2013-03-06 17:57:00,
2013-03-06 10:02:00,30.1,27.4,29.89,WNW,292,7.0,9.0,90,0.00,,---,0.01,VWS V14.00,2013-03-06 18:02:00,
2013-03-06 10:07:00,30.0,27.3,29.90,WNW,292,5.0,10.0,90,0.00,,---,0.01,VWS V14.00,2013-03-06 18:07:00,
2013-03-06 10:12:00,30.3,27.6,29.90,WNW,292,5.0,8.0,90,0.00,,---,0.01,VWS V14.00,2013-03-06 18:12:00,
2013-03-06 10:22:00,30.8,28.1,29.90,WNW,297,18.0,19.0,90,0.00,,---,0.01,VWS V14.00,2013-03-06 18:22:00,
2013-03-06 10:27:00,30.1,27.4,29.90,WNW,298,9.0,19.0,90,0.00,,---,0.01,VWS V14.00,2013-03-06 18:27:00,
2013-03-06 10:32:00,30.1,27.1,29.91,WNW,298,12.0,14.0,88,0.00,,---,0.01,VWS V14.00,2013-03-06 18:32:00,
2013-03-06 10:42:00,30.1,27.1,29.91,WNW,300,9.0,11.0,88,0.01,,---,0.02,VWS V14.00,2013-03-06 18:42:00,
2013-03-06 10:47:00,30.2,27.2,29.91,WNW,300,2.0,11.0,88,0.01,,---,0.02,VWS V14.00,2013-03-06 18:47:00,
2013-03-06 10:52:00,30.9,27.9,29.91,WNW,301,4.0,8.0,88,0.01,,---,0.02,VWS V14.00,2013-03-06 18:52:00,
2013-03-06 10:57:00,31.3,28.0,29.91,WNW,301,6.0,8.0,88,0.01,,---,0.02,VWS V14.00,2013-03-06 18:57:00,
2013-03-06 11:02:00,31.9,28.6,29.92,WNW,300,5.0,8.0,88,0.01,,---,0.02,VWS V14.00,2013-03-06 19:02:00,
2013-03-06 11:12:00,32.5,28.6,29.92,WNW,301,0.0,6.0,86,0.01,,---,0.02,VWS V14.00,2013-03-06 19:12:00,
2013-03-06 11:17:00,33.0,28.9,29.92,WNW,301,0.0,0.0,84,0.02,,---,0.03,VWS V14.00,2013-03-06 19:17:00,
2013-03-06 11:22:00,33.4,29.0,29.93,WNW,301,0.0,0.0,84,0.02,,---,0.03,VWS V14.00,2013-03-06 19:22:00,
2013-03-06 11:27:00,33.8,29.0,29.93,WNW,302,0.0,0.0,82,0.02,,---,0.03,VWS V14.00,2013-03-06 19:27:00,
2013-03-06 11:32:00,33.9,28.9,29.93,WNW,302,0.0,0.0,82,0.02,,---,0.03,VWS V14.00,2013-03-06 19:32:00,
2013-03-06 11:37:00,34.4,29.0,29.93,WNW,302,0.0,0.0,80,0.02,,---,0.03,VWS V14.00,2013-03-06 19:37:00,
2013-03-06 11:47:00,36.0,30.0,29.92,WNW,294,0.0,0.0,78,0.01,,---,0.03,VWS V14.00,2013-03-06 19:47:00,
2013-03-06 11:52:00,36.9,28.2,29.92,SSW,209,19.0,19.0,70,0.01,,---,0.03,VWS V14.00,2013-03-06 19:52:00,
2013-03-06 12:02:00,36.8,26.7,29.93,South,180,14.0,29.0,66,0.01,,---,0.03,VWS V14.00,2013-03-06 20:02:00,
2013-03-06 12:12:00,37.3,26.1,29.92,SW,235,20.0,25.0,64,0.02,,---,0.04,VWS V14.00,2013-03-06 20:12:00,
2013-03-06 12:17:00,37.5,25.1,29.92,SSW,202,18.0,29.0,60,0.02,,---,0.04,VWS V14.00,2013-03-06 20:17:00,
2013-03-06 12:22:00,37.5,24.7,29.93,SSW,202,19.0,24.0,60,0.01,,---,0.04,VWS V14.00,2013-03-06 20:22:00,
2013-03-06 12:27:00,38.1,26.8,29.93,SSW,194,8.0,21.0,64,0.01,,---,0.04,VWS V14.00,2013-03-06 20:27:00,
2013-03-06 12:32:00,38.4,27.1,29.93,South,181,9.0,19.0,64,0.01,,---,0.04,VWS V14.00,2013-03-06 20:32:00,
2013-03-06 12:37:00,38.4,24.7,29.93,SSW,192,10.0,16.0,58,0.01,,---,0.04,VWS V14.00,2013-03-06 20:37:00,
2013-03-06 12:42:00,38.3,25.5,29.93,South,175,12.0,16.0,60,0.01,,---,0.04,VWS V14.00,2013-03-06 20:42:00,
2013-03-06 12:47:00,37.9,25.5,29.93,SSE,167,8.0,13.0,60,0.01,,---,0.04,VWS V14.00,2013-03-06 20:47:00,
2013-03-06 12:52:00,37.9,25.5,29.93,South,182,9.0,13.0,60,0.01,,---,0.04,VWS V14.00,2013-03-06 20:52:00,
2013-03-06 13:02:00,39.1,24.1,29.92,SW,217,13.0,20.0,54,0.01,,---,0.04,VWS V14.00,2013-03-06 21:02:00,
2013-03-06 13:07:00,39.3,22.9,29.93,SSW,211,14.0,18.0,52,0.01,,---,0.04,VWS V14.00,2013-03-06 21:07:00,
2013-03-06 13:17:00,38.4,22.5,29.93,South,188,13.0,18.0,52,0.00,,---,0.04,VWS V14.00,2013-03-06 21:17:00,
2013-03-06 13:22:00,38.5,22.6,29.93,South,186,11.0,18.0,52,0.00,,---,0.04,VWS V14.00,2013-03-06 21:22:00,
2013-03-06 13:27:00,38.6,22.7,29.92,SSW,195,11.0,21.0,52,0.00,,---,0.04,VWS V14.00,2013-03-06 21:27:00,
2013-03-06 13:32:00,38.9,23.5,29.92,SW,217,12.0,19.0,54,0.00,,---,0.04,VWS V14.00,2013-03-06 21:32:00,
2013-03-06 13:42:00,39.1,23.6,29.92,SSW,213,0.0,9.0,54,0.00,,---,0.04,VWS V14.00,2013-03-06 21:42:00,
2013-03-06 13:47:00,39.3,22.9,29.93,SW,232,12.0,14.0,52,0.00,,---,0.04,VWS V14.00,2013-03-06 21:47:00,
2013-03-06 13:57:00,37.3,22.8,29.93,West,265,0.0,8.0,56,0.00,,---,0.04,VWS V14.00,2013-03-06 21:57:00,
2013-03-06 14:02:00,37.3,21.1,29.93,West,265,0.0,0.0,52,0.00,,---,0.04,VWS V14.00,2013-03-06 22:02:00,
2013-03-06 14:07:00,37.7,22.4,29.93,West,265,0.0,0.0,54,0.00,,---,0.04,VWS V14.00,2013-03-06 22:07:00,
2013-03-06 14:12:00,39.0,23.6,29.93,WSW,245,7.0,12.0,54,0.00,,---,0.04,VWS V14.00,2013-03-06 22:12:00,
2013-03-06 14:22:00,39.6,19.8,29.93,SSW,198,10.0,30.0,44,0.00,,---,0.04,VWS V14.00,2013-03-06 22:22:00,
2013-03-06 14:27:00,39.5,21.2,29.93,SW,218,22.0,29.0,48,0.00,,---,0.04,VWS V14.00,2013-03-06 22:27:00,
2013-03-06 14:32:00,38.9,18.6,29.92,SSW,213,12.0,25.0,44,0.00,,---,0.04,VWS V14.00,2013-03-06 22:32:00,
2013-03-06 14:42:00,38.8,19.0,29.92,SW,230,14.0,23.0,44,0.00,,---,0.04,VWS V14.00,2013-03-06 22:42:00,
2013-03-06 14:47:00,39.1,19.8,29.92,SSW,206,11.0,23.0,46,0.00,,---,0.04,VWS V14.00,2013-03-06 22:47:00,
2013-03-06 14:52:00,39.2,18.9,29.92,SW,217,15.0,26.0,44,0.00,,---,0.04,VWS V14.00,2013-03-06 22:52:00,
2013-03-06 15:02:00,38.6,18.3,29.93,SW,226,24.0,29.0,44,0.00,,---,0.04,VWS V14.00,2013-03-06 23:02:00,
2013-03-06 15:07:00,38.4,18.1,29.92,SSW,205,20.0,24.0,44,0.00,,---,0.04,VWS V14.00,2013-03-06 23:07:00,
2013-03-06 15:12:00,38.2,18.5,29.92,SSW,211,19.0,26.0,44,0.00,,---,0.04,VWS V14.00,2013-03-06 23:12:00,
2013-03-06 15:17:00,38.2,18.5,29.92,SW,227,20.0,25.0,44,0.00,,---,0.04,VWS V14.00,2013-03-06 23:17:00,
2013-03-06 15:27:00,38.4,19.2,29.92,SW,236,26.0,26.0,46,0.00,,---,0.04,VWS V14.00,2013-03-06 23:27:00,
2013-03-06 15:32:00,38.4,17.0,29.92,SW,219,20.0,26.0,42,0.00,,---,0.04,VWS V14.00,2013-03-06 23:32:00,
2013-03-06 15:42:00,38.0,19.3,29.92,SW,221,20.0,22.0,46,0.00,,---,0.04,VWS V14.00,2013-03-06 23:42:00,
2013-03-06 15:47:00,38.0,18.8,29.92,SW,231,19.0,24.0,46,0.00,,---,0.04,VWS V14.00,2013-03-06 23:47:00,
2013-03-06 15:52:00,38.0,18.8,29.91,SW,223,16.0,28.0,46,0.00,,---,0.04,VWS V14.00,2013-03-06 23:52:00,
2013-03-06 15:57:00,38.6,20.4,29.91,SW,223,22.0,25.0,48,0.00,,---,0.04,VWS V14.00,2013-03-06 23:57:00,
2013-03-06 16:07:00,38.1,18.4,29.90,SW,232,25.0,35.0,44,0.00,,---,0.04,VWS V14.00,2013-03-07 00:07:00,
2013-03-06 16:12:00,37.9,17.7,29.90,SW,221,24.0,32.0,44,0.00,,---,0.04,VWS V14.00,2013-03-07 00:12:00,
2013-03-06 16:17:00,37.7,19.5,29.90,SW,229,20.0,29.0,48,0.00,,---,0.04,VWS V14.00,2013-03-07 00:17:00,
2013-03-06 16:27:00,37.6,19.0,29.90,SW,231,20.0,30.0,46,0.00,,---,0.04,VWS V14.00,2013-03-07 00:27:00,
2013-03-06 16:37:00,37.7,17.5,29.90,SW,227,12.0,27.0,44,0.00,,---,0.04,VWS V14.00,2013-03-07 00:37:00,
2013-03-06 16:42:00,37.7,19.0,29.91,SSW,213,14.0,26.0,46,0.00,,---,0.04,VWS V14.00,2013-03-07 00:42:00,
2013-03-06 16:52:00,37.5,19.9,29.91,SW,217,9.0,20.0,48,0.00,,---,0.04,VWS V14.00,2013-03-07 00:52:00,
2013-03-06 16:57:00,37.3,19.7,29.91,SSW,199,11.0,15.0,48,0.00,,---,0.04,VWS V14.00,2013-03-07 00:57:00,
2013-03-06 17:02:00,37.2,19.6,29.91,SSW,206,10.0,16.0,48,0.00,,---,0.04,VWS V14.00,2013-03-07 01:02:00,
2013-03-06 17:07:00,37.1,19.5,29.92,SSW,205,4.0,14.0,48,0.00,,---,0.04,VWS V14.00,2013-03-07 01:07:00,
2013-03-06 17:17:00,36.5,19.4,29.92,SSW,194,6.0,11.0,50,0.00,,---,0.04,VWS V14.00,2013-03-07 01:17:00,
2013-03-06 17:22:00,36.1,18.6,29.92,SSW,194,5.0,12.0,48,0.00,,---,0.04,VWS V14.00,2013-03-07 01:22:00,
2013-03-06 17:27:00,35.9,17.9,29.92,South,179,11.0,16.0,48,0.00,,---,0.04,VWS V14.00,2013-03-07 01:27:00,
2013-03-06 17:32:00,35.7,17.7,29.92,South,173,4.0,14.0,48,0.00,,---,0.04,VWS V14.00,2013-03-07 01:32:00,
2013-03-06 17:37:00,35.5,18.0,29.92,South,174,0.0,5.0,48,0.00,,---,0.04,VWS V14.00,2013-03-07 01:37:00,
2013-03-06 17:47:00,35.2,17.7,29.92,South,174,0.0,0.0,48,0.00,,---,0.04,VWS V14.00,2013-03-07 01:47:00,
2013-03-06 17:52:00,35.0,17.5,29.92,South,173,10.0,12.0,48,0.00,,---,0.04,VWS V14.00,2013-03-07 01:52:00,
2013-03-06 18:02:00,34.5,18.0,29.91,South,181,11.0,15.0,50,0.00,,---,0.04,VWS V14.00,2013-03-07 02:02:00,
2013-03-06 18:07:00,34.4,18.4,29.91,SSW,192,12.0,16.0,52,0.00,,---,0.04,VWS V14.00,2013-03-07 02:07:00,
2013-03-06 18:17:00,34.4,18.8,29.91,SSW,195,11.0,21.0,52,0.00,,---,0.04,VWS V14.00,2013-03-07 02:17:00,
2013-03-06 18:22:00,34.4,18.4,29.91,SSW,204,10.0,23.0,52,0.00,,---,0.04,VWS V14.00,2013-03-07 02:22:00,
2013-03-06 18:27:00,34.4,18.8,29.91,SSW,203,11.0,18.0,52,0.00,,---,0.04,VWS V14.00,2013-03-07 02:27:00,
2013-03-06 18:32:00,34.1,19.0,29.91,SSW,203,9.0,19.0,54,0.00,,---,0.04,VWS V14.00,2013-03-07 02:32:00,
2013-03-06 18:42:00,33.7,18.2,29.91,SSW,199,13.0,16.0,52,0.00,,---,0.04,VWS V14.00,2013-03-07 02:42:00,
2013-03-06 18:47:00,33.8,18.3,29.91,SSW,203,12.0,18.0,52,0.00,,---,0.04,VWS V14.00,2013-03-07 02:47:00,
2013-03-06 18:52:00,33.7,18.2,29.91,SSW,202,12.0,15.0,52,0.00,,---,0.04,VWS V14.00,2013-03-07 02:52:00,
2013-03-06 18:57:00,33.5,18.4,29.91,SSW,202,14.0,19.0,54,0.00,,---,0.04,VWS V14.00,2013-03-07 02:57:00,
2013-03-06 19:02:00,33.6,18.5,29.91,SSW,202,9.0,14.0,54,0.00,,---,0.04,VWS V14.00,2013-03-07 03:02:00,
2013-03-06 19:07:00,33.5,18.4,29.91,SSW,202,9.0,13.0,54,0.00,,---,0.04,VWS V14.00,2013-03-07 03:07:00,
2013-03-06 19:12:00,33.4,18.8,29.91,SSW,200,6.0,13.0,54,0.00,,---,0.04,VWS V14.00,2013-03-07 03:12:00,
2013-03-06 19:17:00,33.2,18.6,29.91,SSW,200,8.0,13.0,54,0.00,,---,0.04,VWS V14.00,2013-03-07 03:17:00,
2013-03-06 19:22:00,33.3,18.2,29.91,SSW,200,9.0,12.0,54,0.00,,---,0.04,VWS V14.00,2013-03-07 03:22:00,
2013-03-06 19:27:00,33.2,17.7,29.91,SSW,200,10.0,15.0,52,0.00,,---,0.04,VWS V14.00,2013-03-07 03:27:00,
2013-03-06 19:32:00,33.3,17.8,29.91,SSW,199,9.0,12.0,52,0.00,,---,0.04,VWS V14.00,2013-03-07 03:32:00,
2013-03-06 19:37:00,33.3,17.4,29.91,SSW,196,10.0,15.0,52,0.00,,---,0.04,VWS V14.00,2013-03-07 03:37:00,
2013-03-06 19:42:00,33.6,17.2,29.91,SSW,199,11.0,19.0,50,0.00,,---,0.04,VWS V14.00,2013-03-07 03:42:00,
2013-03-06 19:47:00,33.6,17.6,29.90,SSW,196,11.0,18.0,52,0.00,,---,0.04,VWS V14.00,2013-03-07 03:47:00,
2013-03-06 19:52:00,33.7,17.3,29.90,SSW,196,15.0,15.0,50,0.00,,---,0.04,VWS V14.00,2013-03-07 03:52:00,
2013-03-06 19:57:00,33.7,17.3,29.90,SSW,201,13.0,21.0,50,0.00,,---,0.04,VWS V14.00,2013-03-07 03:57:00,
2013-03-06 20:02:00,33.9,17.5,29.90,SSW,196,11.0,18.0,50,0.00,,---,0.04,VWS V14.00,2013-03-07 04:02:00,
2013-03-06 20:07:00,33.6,17.6,29.91,SSW,193,9.0,14.0,52,0.00,,---,0.04,VWS V14.00,2013-03-07 04:07:00,
2013-03-06 20:12:00,33.5,18.0,29.91,SSW,193,7.0,12.0,52,0.00,,---,0.04,VWS V14.00,2013-03-07 04:12:00,
2013-03-06 20:17:00,33.3,18.2,29.91,SSW,192,7.0,11.0,54,0.00,,---,0.04,VWS V14.00,2013-03-07 04:17:00,
2013-03-06 20:22:00,33.3,18.7,29.91,SSW,192,4.0,11.0,54,0.00,,---,0.04,VWS V14.00,2013-03-07 04:22:00,
2013-03-06 20:27:00,33.3,18.7,29.91,SSW,192,7.0,13.0,54,0.00,,---,0.04,VWS V14.00,2013-03-07 04:27:00,
2013-03-06 20:32:00,33.4,18.8,29.91,South,190,7.0,14.0,54,0.00,,---,0.04,VWS V14.00,2013-03-07 04:32:00,
2013-03-06 20:37:00,33.3,18.7,29.91,South,190,9.0,12.0,54,0.00,,---,0.04,VWS V14.00,2013-03-07 04:37:00,
2013-03-06 20:42:00,33.5,18.9,29.91,South,188,7.0,14.0,54,0.00,,---,0.04,VWS V14.00,2013-03-07 04:42:00,
2013-03-06 20:47:00,33.6,19.0,29.92,South,188,9.0,13.0,54,0.00,,---,0.04,VWS V14.00,2013-03-07 04:47:00,
2013-03-06 20:52:00,33.7,19.0,29.92,South,187,11.0,14.0,54,0.00,,---,0.04,VWS V14.00,2013-03-07 04:52:00,
2013-03-06 20:57:00,34.0,18.9,29.92,South,182,9.0,16.0,54,0.00,,---,0.04,VWS V14.00,2013-03-07 04:57:00,
2013-03-06 21:02:00,34.0,18.9,29.92,South,182,7.0,12.0,54,0.00,,---,0.04,VWS V14.00,2013-03-07 05:02:00,
2013-03-06 21:07:00,33.5,18.4,29.92,South,182,0.0,7.0,54,0.00,,---,0.04,VWS V14.00,2013-03-07 05:07:00,
2013-03-06 21:12:00,34.1,18.5,29.92,South,182,10.0,14.0,52,0.00,,---,0.04,VWS V14.00,2013-03-07 05:12:00,
2013-03-06 21:17:00,34.6,18.6,29.92,SSW,197,8.0,16.0,52,0.00,,---,0.04,VWS V14.00,2013-03-07 05:17:00,
2013-03-06 21:22:00,34.9,18.4,29.92,SSW,205,10.0,15.0,50,0.00,,---,0.04,VWS V14.00,2013-03-07 05:22:00,
2013-03-06 21:27:00,35.0,18.5,29.92,SSW,213,5.0,19.0,50,0.00,,---,0.04,VWS V14.00,2013-03-07 05:27:00,
2013-03-06 21:32:00,34.4,18.4,29.92,SSW,213,8.0,12.0,52,0.00,,---,0.04,VWS V14.00,2013-03-07 05:32:00,
2013-03-06 21:37:00,34.4,18.8,29.93,SW,217,15.0,19.0,52,0.00,,---,0.04,VWS V14.00,2013-03-07 05:37:00,
2013-03-06 21:42:00,34.6,18.6,29.93,SW,223,6.0,16.0,52,0.00,,---,0.04,VWS V14.00,2013-03-07 05:42:00,
2013-03-06 21:47:00,33.7,18.6,29.93,SW,223,4.0,7.0,54,0.00,,---,0.04,VWS V14.00,2013-03-07 05:47:00,
2013-03-06 21:52:00,33.0,18.4,29.93,SW,222,4.0,9.0,54,0.00,,---,0.04,VWS V14.00,2013-03-07 05:52:00,
2013-03-06 21:57:00,32.3,18.2,29.93,SW,222,4.0,5.0,56,0.00,,---,0.04,VWS V14.00,2013-03-07 05:57:00,
2013-03-06 22:02:00,31.9,18.2,29.93,SW,223,4.0,5.0,56,0.00,,---,0.04,VWS V14.00,2013-03-07 06:02:00,
2013-03-06 22:07:00,31.5,18.2,29.93,SW,222,2.0,4.0,58,0.00,,---,0.04,VWS V14.00,2013-03-07 06:07:00,
2013-03-06 22:12:00,31.4,18.1,29.93,SW,222,3.0,5.0,58,0.00,,---,0.04,VWS V14.00,2013-03-07 06:12:00,
2013-03-06 22:17:00,31.4,18.1,29.93,SW,223,2.0,5.0,58,0.00,,---,0.04,VWS V14.00,2013-03-07 06:17:00,
2013-03-06 22:22:00,31.5,17.8,29.93,SW,222,0.0,4.0,56,0.00,,---,0.04,VWS V14.00,2013-03-07 06:22:00,
2013-03-06 22:27:00,32.0,17.9,29.93,SW,222,2.0,4.0,56,0.00,,---,0.04,VWS V14.00,2013-03-07 06:27:00,
2013-03-06 22:32:00,32.5,17.9,29.93,SW,222,0.0,3.0,54,0.00,,---,0.04,VWS V14.00,2013-03-07 06:32:00,
2013-03-06 22:37:00,32.5,17.9,29.93,SW,222,4.0,6.0,54,0.00,,---,0.04,VWS V14.00,2013-03-07 06:37:00,
2013-03-06 22:42:00,32.4,17.8,29.93,SW,222,2.0,4.0,54,0.00,,---,0.04,VWS V14.00,2013-03-07 06:42:00,
2013-03-06 22:47:00,32.3,17.7,29.92,SW,223,2.0,4.0,54,0.00,,---,0.04,VWS V14.00,2013-03-07 06:47:00,
2013-03-06 22:52:00,31.9,17.8,29.92,SW,222,0.0,4.0,56,0.00,,---,0.04,VWS V14.00,2013-03-07 06:52:00,
2013-03-06 22:57:00,31.1,17.5,29.92,SW,222,5.0,5.0,56,0.00,,---,0.04,VWS V14.00,2013-03-07 06:57:00,
2013-03-06 23:02:00,29.6,17.6,29.92,SW,222,6.0,6.0,60,0.00,,---,0.04,VWS V14.00,2013-03-07 07:02:00,
2013-03-06 23:07:00,28.8,17.6,29.92,SW,222,0.0,6.0,62,0.00,,---,0.04,VWS V14.00,2013-03-07 07:07:00,
2013-03-06 23:12:00,28.2,17.8,29.92,SW,219,0.0,0.0,64,0.00,,---,0.04,VWS V14.00,2013-03-07 07:12:00,
2013-03-06 23:17:00,27.9,17.9,29.92,SW,219,0.0,0.0,66,0.00,,---,0.04,VWS V14.00,2013-03-07 07:17:00,
2013-03-06 23:22:00,27.5,18.2,29.92,SW,218,0.0,0.0,68,0.00,,---,0.04,VWS V14.00,2013-03-07 07:22:00,
2013-03-06 23:32:00,28.2,18.5,29.92,SW,217,0.0,0.0,66,0.00,,---,0.04,VWS V14.00,2013-03-07 07:32:00,
2013-03-06 23:37:00,28.2,18.5,29.92,SW,217,0.0,0.0,66,0.00,,---,0.04,VWS V14.00,2013-03-07 07:37:00,
2013-03-06 23:47:00,29.1,18.6,29.92,SW,217,0.0,0.0,64,0.00,,---,0.04,VWS V14.00,2013-03-07 07:47:00,
2013-03-06 23:52:00,28.8,18.7,29.92,SW,217,0.0,0.0,66,0.00,,---,0.04,VWS V14.00,2013-03-07 07:52:00,